createdAt,value
2022-09-13T00:00:36.650Z,30.60
2022-09-13T00:02:58.187Z,33.38
2022-09-13T00:04:59.700Z,36.85
2022-09-13T00:07:01.638Z,36.17
2022-09-13T00:09:03.768Z,30.38
2022-09-13T00:11:05.791Z,26.77
2022-09-13T00:13:08.462Z,28.83
2022-09-13T00:15:10.306Z,29.98
2022-09-13T00:17:11.931Z,27.02
2022-09-13T00:19:13.667Z,34.08
2022-09-13T00:21:17.220Z,33.95
2022-09-13T00:23:19.415Z,29.98
2022-09-13T00:25:21.523Z,35.30
2022-09-13T00:27:23.045Z,29.45
2022-09-13T00:29:24.643Z,29.40
2022-09-13T00:31:27.614Z,27.83
2022-09-13T00:33:29.301Z,31.00
2022-09-13T00:35:31.848Z,32.78
2022-09-13T00:37:34.205Z,30.08
2022-09-13T00:39:35.839Z,29.60
2022-09-13T00:41:37.559Z,27.70
2022-09-13T00:43:42.172Z,28.08
2022-09-13T00:45:43.934Z,29.85
2022-09-13T00:47:48.641Z,31.35
2022-09-13T00:49:52.280Z,29.60
2022-09-13T00:51:56.107Z,34.75
2022-09-13T00:53:59.589Z,33.72
2022-09-13T00:56:01.307Z,32.08
2022-09-13T00:58:06.012Z,30.90
2022-09-13T01:00:11.805Z,34.08
2022-09-13T01:02:14.733Z,42.28
2022-09-13T01:04:17.737Z,35.60
2022-09-13T01:06:22.337Z,33.80
2022-09-13T01:08:24.289Z,34.28
2022-09-13T01:10:27.435Z,36.80
2022-09-13T01:12:37.169Z,35.70
2022-09-13T01:14:38.984Z,36.53
2022-09-13T01:16:41.628Z,36.55
2022-09-13T01:18:44.516Z,31.13
2022-09-13T01:21:04.934Z,30.10
2022-09-13T01:23:12.263Z,32.65
2022-09-13T01:25:16.522Z,35.60
2022-09-13T01:27:23.822Z,32.63
2022-09-13T01:29:28.337Z,32.50
2022-09-13T01:31:35.337Z,34.90
2022-09-13T01:34:03.298Z,35.80
2022-09-13T01:36:24.071Z,33.75
2022-09-13T01:38:32.891Z,33.60
2022-09-13T01:40:49.727Z,38.40
2022-09-13T01:43:03.180Z,46.30
2022-09-13T01:45:23.270Z,65.85
2022-09-13T01:47:25.664Z,169.80
2022-09-13T01:49:39.868Z,132.17
2022-09-13T01:51:41.789Z,163.35
2022-09-13T01:53:52.795Z,108.93
2022-09-13T01:56:16.213Z,95.18
2022-09-13T01:58:23.880Z,113.18
2022-09-13T02:00:27.376Z,103.47
2022-09-13T02:02:36.699Z,95.22
2022-09-13T02:04:41.689Z,95.78
2022-09-13T02:06:58.249Z,58.80
2022-09-13T02:09:01.813Z,111.45
2022-09-13T02:11:06.286Z,101.57
2022-09-13T02:13:11.153Z,86.15
2022-09-13T02:15:16.034Z,74.20
2022-09-13T02:17:20.690Z,74.28
2022-09-13T02:19:42.886Z,56.67
2022-09-13T02:21:45.784Z,85.10
2022-09-13T02:25:49.717Z,64.15
2022-09-13T02:27:52.663Z,75.85
2022-09-13T02:29:58.571Z,80.55
2022-09-13T02:32:03.970Z,86.68
2022-09-13T02:34:32.017Z,82.15
2022-09-13T02:36:36.210Z,78.25
2022-09-13T02:38:44.793Z,60.88
2022-09-13T02:40:49.525Z,58.40
2022-09-13T02:43:05.044Z,57.80
2022-09-13T02:45:06.964Z,57.28
2022-09-13T02:47:12.153Z,48.88
2022-09-13T02:49:29.409Z,56.33
2022-09-13T02:51:48.243Z,50.78
2022-09-13T02:53:56.044Z,45.33
2022-09-13T02:55:57.545Z,48.58
2022-09-13T02:58:18.209Z,44.40
2022-09-13T03:00:19.911Z,44.45
2022-09-13T03:02:22.820Z,46.78
2022-09-13T03:04:24.759Z,61.70
2022-09-13T03:06:27.565Z,60.13
2022-09-13T03:08:29.618Z,58.40
2022-09-13T03:10:37.856Z,48.35
2022-09-13T03:12:54.803Z,42.80
2022-09-13T03:15:15.211Z,45.75
2022-09-13T03:17:23.147Z,44.33
2022-09-13T03:19:43.951Z,37.20
2022-09-13T03:21:57.464Z,38.45
2022-09-13T03:24:08.389Z,44.47
2022-09-13T03:26:22.051Z,51.30
2022-09-13T03:28:32.460Z,44.97
2022-09-13T03:30:35.884Z,44.67
2022-09-13T03:32:43.572Z,45.55
2022-09-13T03:34:55.842Z,42.60
2022-09-13T03:37:10.047Z,46.30
2022-09-13T03:39:17.611Z,40.33
2022-09-13T03:41:22.719Z,44.83
2022-09-13T03:43:27.441Z,42.08
2022-09-13T03:45:31.536Z,41.28
2022-09-13T03:47:34.339Z,42.60
2022-09-13T03:51:38.400Z,41.58
2022-09-13T03:53:43.210Z,44.10
2022-09-13T03:55:45.130Z,45.83
2022-09-13T03:57:47.192Z,47.00
2022-09-13T03:59:53.372Z,49.03
2022-09-13T04:01:55.666Z,43.15
2022-09-13T04:03:57.300Z,45.10
2022-09-13T04:05:58.851Z,44.35
2022-09-13T04:08:01.814Z,38.70
2022-09-13T04:12:05.127Z,49.40
2022-09-13T04:14:06.886Z,42.72
2022-09-13T04:16:08.442Z,45.92
2022-09-13T04:18:11.262Z,47.13
2022-09-13T04:20:13.016Z,48.67
2022-09-13T04:22:14.807Z,46.10
2022-09-13T04:24:17.118Z,45.85
2022-09-13T04:26:19.035Z,45.08
2022-09-13T04:28:21.291Z,47.92
2022-09-13T04:30:23.390Z,41.53
2022-09-13T04:32:25.418Z,43.33
2022-09-13T04:34:26.907Z,38.92
2022-09-13T04:36:28.520Z,38.83
2022-09-13T04:38:32.077Z,37.35
2022-09-13T04:40:35.043Z,30.08
2022-09-13T04:44:38.341Z,26.75
2022-09-13T04:46:40.110Z,26.30
2022-09-13T04:48:41.618Z,25.90
2022-09-13T04:50:43.620Z,26.75
2022-09-13T04:52:45.341Z,28.30
2022-09-13T04:54:48.044Z,25.52
2022-09-13T04:58:51.581Z,26.00
2022-09-13T05:00:56.945Z,26.88
2022-09-13T05:02:58.734Z,21.35
2022-09-13T05:05:00.415Z,23.17
2022-09-13T05:07:02.035Z,22.38
2022-09-13T05:09:04.004Z,23.17
2022-09-13T05:11:06.073Z,21.45
2022-09-13T05:13:07.695Z,23.80
2022-09-13T05:15:10.661Z,21.10
2022-09-13T05:17:12.385Z,21.63
2022-09-13T05:19:13.983Z,21.67
2022-09-13T05:21:15.761Z,21.60
2022-09-13T05:23:17.325Z,24.48
2022-09-13T05:25:21.090Z,20.90
2022-09-13T05:27:24.764Z,22.23
2022-09-13T05:29:26.398Z,20.90
2022-09-13T05:31:35.348Z,23.48
2022-09-13T05:33:38.340Z,21.42
2022-09-13T05:37:41.830Z,18.35
2022-09-13T05:40:09.842Z,19.67
2022-09-13T05:42:05.182Z,21.15
2022-09-13T05:44:12.977Z,21.23
2022-09-13T05:46:17.488Z,19.15
2022-09-13T05:48:19.120Z,18.95
2022-09-13T05:50:45.066Z,25.90
2022-09-13T05:52:43.029Z,23.25
2022-09-13T05:54:44.550Z,17.08
2022-09-13T05:56:46.192Z,22.50
2022-09-13T05:58:48.661Z,19.35
2022-09-13T06:00:54.949Z,24.48
2022-09-13T06:02:56.895Z,22.63
2022-09-13T06:04:58.612Z,27.85
2022-09-13T06:07:00.172Z,24.63
2022-09-13T06:09:01.709Z,21.97
2022-09-13T06:11:07.649Z,27.90
2022-09-13T06:13:12.090Z,26.02
2022-09-13T06:15:13.829Z,21.52
2022-09-13T06:17:15.687Z,16.27
2022-09-13T06:19:17.319Z,18.60
2022-09-13T06:21:20.113Z,18.77
2022-09-13T06:23:24.251Z,23.27
2022-09-13T06:25:25.748Z,19.23
2022-09-13T06:27:28.951Z,16.05
2022-09-13T06:29:30.720Z,16.85
2022-09-13T06:31:32.329Z,17.58
2022-09-13T06:33:34.690Z,14.30
2022-09-13T06:35:36.962Z,14.65
2022-09-13T06:37:38.474Z,14.95
2022-09-13T06:39:40.010Z,15.38
2022-09-13T06:41:41.825Z,17.45
2022-09-13T06:43:43.334Z,16.88
2022-09-13T06:45:44.934Z,14.68
2022-09-13T06:47:46.726Z,11.57
2022-09-13T06:49:48.642Z,12.88
2022-09-13T06:51:50.209Z,20.80
2022-09-13T06:53:52.634Z,12.15
2022-09-13T06:57:55.643Z,15.75
2022-09-13T06:59:57.384Z,13.20
2022-09-13T07:01:58.936Z,16.43
2022-09-13T07:04:02.403Z,14.25
2022-09-13T07:06:09.008Z,12.80
2022-09-13T07:08:10.555Z,14.60
2022-09-13T07:10:12.378Z,14.82
2022-09-13T07:12:17.638Z,15.13
2022-09-13T07:14:23.105Z,14.13
2022-09-13T07:16:25.934Z,14.90
2022-09-13T07:18:27.683Z,19.35
2022-09-13T07:20:29.198Z,14.30
2022-09-13T07:22:30.803Z,13.30
2022-09-13T07:24:32.580Z,13.75
2022-09-13T07:26:34.546Z,17.83
2022-09-13T07:28:37.694Z,17.50
2022-09-13T07:30:39.575Z,12.98
2022-09-13T07:32:42.504Z,14.15
2022-09-13T07:34:44.084Z,14.43
2022-09-13T07:36:47.012Z,11.95
2022-09-13T07:38:48.872Z,15.80
2022-09-13T07:40:58.309Z,11.77
2022-09-13T07:43:00.257Z,13.68
2022-09-13T07:45:01.815Z,10.93
2022-09-13T07:47:03.519Z,12.77
2022-09-13T07:49:05.830Z,15.35
2022-09-13T07:51:08.724Z,11.10
2022-09-13T07:53:10.460Z,11.07
2022-09-13T07:55:13.521Z,12.77
2022-09-13T07:57:15.047Z,12.40
2022-09-13T07:59:17.269Z,13.30
2022-09-13T08:03:20.666Z,13.93
2022-09-13T08:05:22.346Z,13.63
2022-09-13T08:07:24.084Z,14.63
2022-09-13T08:09:25.804Z,8.07
2022-09-13T08:11:41.513Z,12.27
2022-09-13T08:13:43.326Z,15.60
2022-09-13T08:15:44.996Z,11.40
2022-09-13T08:17:46.634Z,18.43
2022-09-13T08:19:48.389Z,8.98
2022-09-13T08:21:50.024Z,15.65
2022-09-13T08:23:56.260Z,11.77
2022-09-13T08:26:00.914Z,12.57
2022-09-13T08:28:05.669Z,11.82
2022-09-13T08:30:07.501Z,12.15
2022-09-13T08:32:09.365Z,11.25
2022-09-13T08:34:12.894Z,13.40
2022-09-13T08:36:15.598Z,11.13
2022-09-13T08:38:17.890Z,11.70
2022-09-13T08:40:19.933Z,8.65
2022-09-13T08:42:28.436Z,8.00
2022-09-13T08:44:33.364Z,18.25
2022-09-13T08:46:36.543Z,12.38
2022-09-13T08:48:41.578Z,17.75
2022-09-13T08:50:45.223Z,12.50
2022-09-13T08:52:50.905Z,7.95
2022-09-13T08:54:57.926Z,11.50
2022-09-13T08:57:06.236Z,7.78
2022-09-13T08:59:24.319Z,8.93
2022-09-13T09:01:43.612Z,6.40
2022-09-13T09:03:48.990Z,5.80
2022-09-13T09:05:51.108Z,8.77
2022-09-13T09:08:14.494Z,7.45
2022-09-13T09:10:19.006Z,6.78
2022-09-13T09:12:25.470Z,8.68
2022-09-13T09:14:31.137Z,9.73
2022-09-13T09:16:36.249Z,10.93
2022-09-13T09:18:42.983Z,11.35
2022-09-13T09:20:46.697Z,8.32
2022-09-13T09:22:49.096Z,4.93
2022-09-13T09:24:53.559Z,5.63
2022-09-13T09:26:58.209Z,4.75
2022-09-13T09:29:11.148Z,5.88
2022-09-13T09:31:23.544Z,5.55
2022-09-13T09:33:44.505Z,6.47
2022-09-13T09:35:52.973Z,6.78
2022-09-13T09:38:04.404Z,5.93
2022-09-13T09:40:10.306Z,5.85
2022-09-13T09:42:17.342Z,3.05
2022-09-13T09:44:20.323Z,7.43
2022-09-13T09:46:26.155Z,9.25
2022-09-13T09:48:29.804Z,8.70
2022-09-13T09:50:37.087Z,5.10
2022-09-13T09:52:40.079Z,8.73
2022-09-13T09:54:41.892Z,5.30
2022-09-13T09:56:52.856Z,3.90
2022-09-13T09:58:55.776Z,4.68
2022-09-13T10:00:58.949Z,3.60
2022-09-13T10:03:02.906Z,4.68
2022-09-13T10:05:05.048Z,5.13
2022-09-13T10:07:16.740Z,5.18
2022-09-13T10:09:19.948Z,7.45
2022-09-13T10:11:22.279Z,5.93
2022-09-13T10:13:26.487Z,8.40
2022-09-13T10:15:34.715Z,6.85
2022-09-13T10:17:36.952Z,4.78
2022-09-13T10:19:38.736Z,4.93
2022-09-13T10:21:40.364Z,7.45
2022-09-13T10:23:41.883Z,9.23
2022-09-13T10:25:47.957Z,10.27
2022-09-13T10:27:54.139Z,7.20
2022-09-13T10:29:59.688Z,9.57
2022-09-13T10:32:08.250Z,5.85
2022-09-13T10:34:13.024Z,6.15
2022-09-13T10:36:29.559Z,7.55
2022-09-13T10:38:41.848Z,10.57
2022-09-13T10:40:48.603Z,9.00
2022-09-13T10:42:54.946Z,7.57
2022-09-13T10:45:01.290Z,7.65
2022-09-13T10:47:07.855Z,6.30
2022-09-13T10:49:30.415Z,8.32
2022-09-13T10:51:37.053Z,4.07
2022-09-13T10:53:39.864Z,4.70
2022-09-13T10:55:42.585Z,3.60
2022-09-13T10:57:48.464Z,3.35
2022-09-13T10:59:52.949Z,4.55
2022-09-13T11:02:13.689Z,4.53
2022-09-13T11:04:15.479Z,10.52
2022-09-13T11:06:43.397Z,7.30
2022-09-13T11:08:47.709Z,6.43
2022-09-13T11:11:08.926Z,5.53
2022-09-13T11:13:22.554Z,3.33
2022-09-13T11:15:33.024Z,7.22
2022-09-13T11:17:53.303Z,6.53
2022-09-13T11:20:03.806Z,5.63
2022-09-13T11:22:21.577Z,5.70
2022-09-13T11:24:33.302Z,5.68
2022-09-13T11:26:38.268Z,8.18
2022-09-13T11:28:50.045Z,5.20
2022-09-13T11:31:08.898Z,7.65
2022-09-13T11:33:24.609Z,5.28
2022-09-13T11:35:36.699Z,5.35
2022-09-13T11:37:57.441Z,5.70
2022-09-13T11:40:02.083Z,35.92
2022-09-13T11:42:10.030Z,5.05
2022-09-13T11:44:27.091Z,8.82
2022-09-13T11:46:34.996Z,6.20
2022-09-13T11:48:46.358Z,3.53
2022-09-13T11:50:48.129Z,4.53
2022-09-13T11:53:08.318Z,7.07
2022-09-13T11:55:16.447Z,4.15
2022-09-13T11:57:21.466Z,7.45
2022-09-13T11:59:41.916Z,19.23
2022-09-13T12:01:45.910Z,5.78
2022-09-13T12:04:06.248Z,5.88
2022-09-13T12:06:11.385Z,9.57
2022-09-13T12:08:12.963Z,8.73
2022-09-13T12:10:20.793Z,7.32
2022-09-13T12:12:26.185Z,5.20
2022-09-13T12:14:30.008Z,9.73
2022-09-13T12:16:36.385Z,7.35
2022-09-13T12:18:44.521Z,4.80
2022-09-13T12:20:51.696Z,5.55
2022-09-13T12:22:54.215Z,6.13
2022-09-13T12:25:00.284Z,6.60
2022-09-13T12:27:10.554Z,6.20
2022-09-13T12:29:17.915Z,19.63
2022-09-13T12:31:23.407Z,13.00
2022-09-13T12:33:27.560Z,10.60
2022-09-13T12:35:29.477Z,12.63
2022-09-13T12:37:31.561Z,8.98
2022-09-13T12:39:49.356Z,6.47
2022-09-13T12:42:10.467Z,6.40
2022-09-13T12:44:32.956Z,5.10
2022-09-13T12:46:44.587Z,7.82
2022-09-13T12:48:46.397Z,11.77
2022-09-13T12:50:58.991Z,6.65
2022-09-13T12:53:06.663Z,13.40
2022-09-13T12:55:23.963Z,7.47
2022-09-13T12:57:48.193Z,5.70
2022-09-13T13:00:11.592Z,9.35
2022-09-13T13:04:17.472Z,5.82
2022-09-13T13:06:27.935Z,9.38
2022-09-13T13:08:30.335Z,13.93
2022-09-13T13:10:34.475Z,8.73
2022-09-13T13:12:37.571Z,6.40
2022-09-13T13:14:39.393Z,12.15
2022-09-13T13:16:41.052Z,6.05
2022-09-13T13:18:42.905Z,8.07
2022-09-13T13:20:53.723Z,15.87
2022-09-13T13:23:03.156Z,8.00
2022-09-13T13:25:23.473Z,6.95
2022-09-13T13:27:36.823Z,8.77
2022-09-13T13:31:40.753Z,8.57
2022-09-13T13:33:47.051Z,8.10
2022-09-13T13:35:48.985Z,8.82
2022-09-13T13:37:51.252Z,10.10
2022-09-13T13:40:13.165Z,9.27
2022-09-13T13:42:25.967Z,10.48
2022-09-13T13:44:28.152Z,13.35
2022-09-13T13:46:31.297Z,12.13
2022-09-13T13:50:37.574Z,6.75
2022-09-13T13:52:47.093Z,6.70
2022-09-13T13:54:58.177Z,8.45
2022-09-13T13:56:59.935Z,10.48
2022-09-13T13:59:05.532Z,8.83
2022-09-13T14:01:11.448Z,9.00
2022-09-13T14:03:15.779Z,7.18
2022-09-13T14:05:23.707Z,11.23
2022-09-13T14:07:43.824Z,14.05
2022-09-13T14:09:53.766Z,12.57
2022-09-13T14:11:55.490Z,8.48
2022-09-13T14:14:13.643Z,13.70
2022-09-13T14:16:36.977Z,11.23
2022-09-13T14:18:39.330Z,8.48
2022-09-13T14:20:57.048Z,9.18
2022-09-13T14:23:12.065Z,10.30
2022-09-13T14:25:23.181Z,11.15
2022-09-13T14:27:29.512Z,11.65
2022-09-13T14:29:31.087Z,9.35
2022-09-13T14:31:32.944Z,11.27
2022-09-13T14:33:36.698Z,14.70
2022-09-13T14:35:39.722Z,14.07
2022-09-13T14:37:41.754Z,9.32
2022-09-13T14:40:00.784Z,9.40
2022-09-13T14:42:13.564Z,9.13
2022-09-13T14:44:26.357Z,9.73
2022-09-13T14:46:37.773Z,12.13
2022-09-13T14:48:47.075Z,8.80
2022-09-13T14:50:51.787Z,11.18
2022-09-13T14:53:01.917Z,8.63
2022-09-13T14:55:09.770Z,9.98
2022-09-13T14:57:21.823Z,10.00
2022-09-13T14:59:31.858Z,15.10
2022-09-13T15:01:34.179Z,13.60
2022-09-13T15:03:36.786Z,7.88
2022-09-13T15:05:39.086Z,8.55
2022-09-13T15:07:41.598Z,8.15
2022-09-13T15:09:43.751Z,12.07
2022-09-13T15:11:54.226Z,10.05
2022-09-13T15:14:14.400Z,12.75
2022-09-13T15:16:27.602Z,14.10
2022-09-13T15:18:36.532Z,18.33
2022-09-13T15:20:45.128Z,9.88
2022-09-13T15:22:47.037Z,9.98
2022-09-13T15:24:50.592Z,11.90
2022-09-13T15:27:22.414Z,10.95
2022-09-13T15:29:24.220Z,9.00
2022-09-13T15:31:31.124Z,15.43
2022-09-13T15:33:34.351Z,8.23
2022-09-13T15:35:37.429Z,8.82
2022-09-13T15:40:01.491Z,12.52
2022-09-13T15:42:03.435Z,12.23
2022-09-13T15:44:06.686Z,13.55
2022-09-13T15:46:12.529Z,8.65
2022-09-13T15:48:25.543Z,11.68
2022-09-13T15:50:28.961Z,10.73
2022-09-13T15:52:31.135Z,14.52
2022-09-13T15:54:34.394Z,9.85
2022-09-13T15:56:39.973Z,9.50
2022-09-13T15:58:41.487Z,9.88
2022-09-13T16:00:43.632Z,8.93
2022-09-13T16:02:45.768Z,10.20
2022-09-13T16:04:47.410Z,15.40
2022-09-13T16:06:49.235Z,10.57
2022-09-13T16:08:50.794Z,9.63
2022-09-13T16:10:52.431Z,10.27
2022-09-13T16:12:55.159Z,13.10
2022-09-13T16:14:56.790Z,9.20
2022-09-13T16:16:59.714Z,13.57
2022-09-13T16:19:01.855Z,13.25
2022-09-13T16:21:03.431Z,10.52
2022-09-13T16:23:05.010Z,11.52
2022-09-13T16:25:07.109Z,12.63
2022-09-13T16:27:09.980Z,13.18
2022-09-13T16:29:12.769Z,13.90
2022-09-13T16:31:16.553Z,15.15
2022-09-13T16:33:18.236Z,10.07
2022-09-13T16:35:19.810Z,13.95
2022-09-13T16:37:21.971Z,11.75
2022-09-13T16:39:23.488Z,12.23
2022-09-13T16:41:25.053Z,10.48
2022-09-13T16:43:26.951Z,13.48
2022-09-13T16:45:28.492Z,10.70
2022-09-13T16:47:30.189Z,14.05
2022-09-13T16:49:32.046Z,10.40
2022-09-13T16:51:33.739Z,10.68
2022-09-13T16:53:36.475Z,15.50
2022-09-13T16:57:39.921Z,11.30
2022-09-13T16:59:41.588Z,11.45
2022-09-13T17:01:43.430Z,12.23
2022-09-13T17:03:45.071Z,10.88
2022-09-13T17:05:57.002Z,11.35
2022-09-13T17:07:58.760Z,13.32
2022-09-13T17:10:00.415Z,10.25
2022-09-13T17:12:02.421Z,12.43
2022-09-13T17:14:05.431Z,16.65
2022-09-13T17:16:17.559Z,11.68
2022-09-13T17:18:19.497Z,14.30
2022-09-13T17:20:21.271Z,13.13
2022-09-13T17:22:22.927Z,14.02
2022-09-13T17:24:25.000Z,14.68
2022-09-13T17:26:26.788Z,13.02
2022-09-13T17:28:28.354Z,15.73
2022-09-13T17:30:30.984Z,12.20
2022-09-13T17:32:33.067Z,11.90
2022-09-13T17:34:34.741Z,15.98
2022-09-13T17:36:36.537Z,15.40
2022-09-13T17:38:38.577Z,11.98
2022-09-13T17:40:41.555Z,14.38
2022-09-13T17:44:44.870Z,13.75
2022-09-13T17:46:46.680Z,13.60
2022-09-13T17:48:49.484Z,10.07
2022-09-13T17:52:52.793Z,14.68
2022-09-13T17:54:54.399Z,13.00
2022-09-13T17:56:56.267Z,13.30
2022-09-13T17:59:05.857Z,13.95
2022-09-13T18:01:11.192Z,12.60
2022-09-13T18:03:13.214Z,15.00
2022-09-13T18:05:14.838Z,12.95
2022-09-13T18:07:17.239Z,11.43
2022-09-13T18:09:19.715Z,16.02
2022-09-13T18:11:22.564Z,13.90
2022-09-13T18:15:26.076Z,12.25
2022-09-13T18:17:27.919Z,12.80
2022-09-13T18:19:45.415Z,12.27
2022-09-13T18:21:48.591Z,13.05
2022-09-13T18:23:51.310Z,15.55
2022-09-13T18:26:11.991Z,15.38
2022-09-13T18:28:14.320Z,13.25
2022-09-13T18:30:16.541Z,14.32
2022-09-13T18:32:18.123Z,15.33
2022-09-13T18:34:20.902Z,13.93
2022-09-13T18:36:25.251Z,11.63
2022-09-13T18:38:27.400Z,15.95
2022-09-13T18:40:29.370Z,14.55
2022-09-13T18:42:33.447Z,11.43
2022-09-13T18:44:35.085Z,13.60
2022-09-13T18:46:37.437Z,13.35
2022-09-13T18:48:40.702Z,12.80
2022-09-13T18:50:42.363Z,16.13
2022-09-13T18:52:44.153Z,14.35
2022-09-13T18:54:45.659Z,12.55
2022-09-13T18:56:47.650Z,12.40
2022-09-13T18:58:49.850Z,14.55
2022-09-13T19:01:20.873Z,13.30
2022-09-13T19:03:22.605Z,13.73
2022-09-13T19:05:28.291Z,16.40
2022-09-13T19:07:29.788Z,12.25
2022-09-13T19:09:31.619Z,16.42
2022-09-13T19:11:53.328Z,13.77
2022-09-13T19:13:54.881Z,15.90
2022-09-13T19:16:00.293Z,12.32
2022-09-13T19:18:02.387Z,14.38
2022-09-13T19:20:04.467Z,15.43
2022-09-13T19:22:06.171Z,18.63
2022-09-13T19:24:16.205Z,13.02
2022-09-13T19:26:19.800Z,14.02
2022-09-13T19:30:23.197Z,12.57
2022-09-13T19:32:24.689Z,15.60
2022-09-13T19:34:26.336Z,13.25
2022-09-13T19:36:33.924Z,14.73
2022-09-13T19:38:36.078Z,12.90
2022-09-13T19:40:38.813Z,14.02
2022-09-13T19:44:41.983Z,13.82
2022-09-13T19:46:43.704Z,13.68
2022-09-13T19:48:46.398Z,14.73
2022-09-13T19:50:48.267Z,15.07
2022-09-13T19:52:50.191Z,12.73
2022-09-13T19:54:52.565Z,15.48
2022-09-13T19:56:54.279Z,23.55
2022-09-13T19:58:56.034Z,20.95
2022-09-13T20:01:02.258Z,17.40
2022-09-13T20:03:03.905Z,15.48
2022-09-13T20:05:05.691Z,16.00
2022-09-13T20:07:12.010Z,14.30
2022-09-13T20:09:14.253Z,18.77
2022-09-13T20:11:16.576Z,12.93
2022-09-13T20:13:18.771Z,12.27
2022-09-13T20:15:21.045Z,15.70
2022-09-13T20:17:22.827Z,17.05
2022-09-13T20:19:44.795Z,12.55
2022-09-13T20:21:49.521Z,15.50
2022-09-13T20:23:54.024Z,13.50
2022-09-13T20:25:55.799Z,14.15
2022-09-13T20:27:57.483Z,17.25
2022-09-13T20:29:59.332Z,14.88
2022-09-13T20:32:02.218Z,14.30
2022-09-13T20:34:05.200Z,18.70
2022-09-13T20:38:08.462Z,13.57
2022-09-13T20:40:10.150Z,17.13
2022-09-13T20:42:11.999Z,14.93
2022-09-13T20:44:13.718Z,14.05
2022-09-13T20:46:15.848Z,14.80
2022-09-13T20:48:18.339Z,18.33
2022-09-13T20:50:20.327Z,17.35
2022-09-13T20:52:22.008Z,16.90
2022-09-13T20:54:23.550Z,15.93
2022-09-13T20:56:25.330Z,18.52
2022-09-13T20:58:27.092Z,15.20
2022-09-13T21:00:28.633Z,16.92
2022-09-13T21:02:30.440Z,17.80
2022-09-13T21:04:32.670Z,16.95
2022-09-13T21:06:39.060Z,20.98
2022-09-13T21:08:41.332Z,17.58
2022-09-13T21:10:42.928Z,20.52
2022-09-13T21:12:44.785Z,15.05
2022-09-13T21:14:46.499Z,15.73
2022-09-13T21:16:49.000Z,14.68
2022-09-13T21:18:50.926Z,14.65
2022-09-13T21:20:56.090Z,17.83
2022-09-13T21:22:57.628Z,16.50
2022-09-13T21:24:59.822Z,16.38
2022-09-13T21:27:02.475Z,19.60
2022-09-13T21:29:04.068Z,19.10
2022-09-13T21:31:08.071Z,18.92
2022-09-13T21:33:10.279Z,16.65
2022-09-13T21:35:11.831Z,20.35
2022-09-13T21:37:13.569Z,20.27
2022-09-13T21:39:16.304Z,20.98
2022-09-13T21:41:18.499Z,19.55
2022-09-13T21:43:21.031Z,18.90
2022-09-13T21:45:22.821Z,19.70
2022-09-13T21:47:24.359Z,22.80
2022-09-13T21:49:26.005Z,18.80
2022-09-13T21:51:29.099Z,18.58
2022-09-13T21:55:35.724Z,16.45
2022-09-13T21:57:37.431Z,17.63
2022-09-13T21:59:38.990Z,17.58
2022-09-13T22:01:42.063Z,19.55
2022-09-13T22:03:45.165Z,21.27
2022-09-13T22:05:46.624Z,18.73
2022-09-13T22:07:48.173Z,19.02
2022-09-13T22:09:49.816Z,22.25
2022-09-13T22:11:51.310Z,23.52
2022-09-13T22:13:53.974Z,23.35
2022-09-13T22:15:55.609Z,25.98
2022-09-13T22:17:57.121Z,24.23
2022-09-13T22:19:58.941Z,25.50
2022-09-13T22:22:01.102Z,26.83
2022-09-13T22:24:05.598Z,23.50
2022-09-13T22:26:08.666Z,26.40
2022-09-13T22:28:10.383Z,25.08
2022-09-13T22:30:12.335Z,23.67
2022-09-13T22:32:14.134Z,27.80
2022-09-13T22:34:17.142Z,27.48
2022-09-13T22:36:19.189Z,29.80
2022-09-13T22:38:20.782Z,25.80
2022-09-13T22:40:22.585Z,30.42
2022-09-13T22:42:24.658Z,33.90
2022-09-13T22:44:26.245Z,25.95
2022-09-13T22:46:38.682Z,30.50
2022-09-13T22:48:41.010Z,27.77
2022-09-13T22:50:42.452Z,27.98
2022-09-13T22:52:44.154Z,27.38
2022-09-13T22:54:46.958Z,29.63
2022-09-13T22:56:48.514Z,26.20
2022-09-13T22:58:54.151Z,28.50
2022-09-13T23:01:01.716Z,28.38
2022-09-13T23:03:03.880Z,25.15
2022-09-13T23:05:05.692Z,23.85
2022-09-13T23:07:07.143Z,25.08
2022-09-13T23:09:08.727Z,22.30
2022-09-13T23:11:10.393Z,24.00
2022-09-13T23:13:12.071Z,16.20
2022-09-13T23:15:13.650Z,18.67
2022-09-13T23:17:16.024Z,16.08
2022-09-13T23:19:18.738Z,11.35
2022-09-13T23:21:21.682Z,13.13
2022-09-13T23:23:23.392Z,10.73
2022-09-13T23:25:25.093Z,10.07
2022-09-13T23:27:26.614Z,10.45
2022-09-13T23:29:28.455Z,9.98
2022-09-13T23:31:31.452Z,12.02
2022-09-13T23:33:33.004Z,11.43
2022-09-13T23:35:36.979Z,11.27
2022-09-13T23:37:39.574Z,9.02
2022-09-13T23:39:41.170Z,8.32
2022-09-13T23:41:43.664Z,8.50
2022-09-13T23:43:45.644Z,8.68
2022-09-13T23:45:47.240Z,7.82
2022-09-13T23:47:49.000Z,8.38
2022-09-13T23:49:50.583Z,8.70
2022-09-13T23:51:52.128Z,7.80
2022-09-13T23:53:57.452Z,7.60
2022-09-13T23:55:59.186Z,7.07
2022-09-13T23:58:00.695Z,8.50
